Terminal Aerodrome Forecast
Issued by NWS

Home | Current Version | Previous Version | Text Only | Print | Product List | Glossary Off
Versions: 1 2 3 4 5 6 7 8 9 10 11 12 13 14 15

716
FTUS45 KGGW 151120
TAFSDY
TAF
KSDY 151120Z 1512/1612 21008KT P6SM BKN090
     FM151400 23008KT P6SM BKN090 WS020/29030KT
     FM151600 24008KT P6SM BKN100
     FM160700 30010KT P6SM OVC030=

USA.gov is the U.S. government's official web portal to all federal, state and local government web resources and services.